createdAt,value
2023-03-28T00:01:13.811Z,1.13
2023-03-28T00:03:42.780Z,0.80
2023-03-28T00:06:16.740Z,1.15
2023-03-28T00:08:47.503Z,1.00
2023-03-28T00:11:19.658Z,1.30
2023-03-28T00:13:53.514Z,1.83
2023-03-28T00:16:22.148Z,1.70
2023-03-28T00:18:50.914Z,0.70
2023-03-28T00:21:24.531Z,0.90
2023-03-28T00:23:54.624Z,0.90
2023-03-28T00:26:26.602Z,1.15
2023-03-28T00:28:57.485Z,0.75
2023-03-28T00:31:26.970Z,1.27
2023-03-28T00:33:56.151Z,0.90
2023-03-28T00:36:29.554Z,1.20
2023-03-28T00:38:58.927Z,1.17
2023-03-28T00:41:31.459Z,0.88
2023-03-28T00:44:02.521Z,0.70
2023-03-28T00:46:35.263Z,0.88
2023-03-28T00:49:08.979Z,0.98
2023-03-28T00:51:41.617Z,1.92
2023-03-28T00:54:13.944Z,0.90
2023-03-28T00:56:47.304Z,1.00
2023-03-28T00:59:21.157Z,0.90
2023-03-28T01:01:50.434Z,0.90
2023-03-28T01:04:22.175Z,0.98
2023-03-28T01:06:58.887Z,1.27
2023-03-28T01:09:28.272Z,1.02
2023-03-28T01:11:59.595Z,0.70
2023-03-28T01:14:31.219Z,0.82
2023-03-28T01:17:02.196Z,1.00
2023-03-28T01:19:47.924Z,1.15
2023-03-28T01:23:12.328Z,0.90
2023-03-28T01:26:39.218Z,0.95
2023-03-28T01:30:00.892Z,0.45
2023-03-28T01:33:47.813Z,0.93
2023-03-28T01:36:51.997Z,1.13
2023-03-28T01:39:31.978Z,0.60
2023-03-28T01:42:10.015Z,0.60
2023-03-28T01:44:49.095Z,0.88
2023-03-28T01:47:25.024Z,0.82
2023-03-28T01:50:03.156Z,1.00
2023-03-28T01:52:37.854Z,1.77
2023-03-28T01:55:16.993Z,1.70
2023-03-28T01:57:54.012Z,0.80
2023-03-28T02:00:29.248Z,0.90
2023-03-28T02:03:18.693Z,0.90
2023-03-28T02:06:10.636Z,0.82
2023-03-28T02:08:45.092Z,0.88
2023-03-28T02:11:34.706Z,1.08
2023-03-28T02:14:16.813Z,0.82
2023-03-28T02:17:21.441Z,1.00
2023-03-28T02:20:31.598Z,1.08
2023-03-28T02:23:20.192Z,0.98
2023-03-28T02:26:04.216Z,0.68
2023-03-28T02:28:57.058Z,0.98
2023-03-28T02:31:46.685Z,0.85
2023-03-28T02:34:15.396Z,1.10
2023-03-28T02:36:53.413Z,0.98
2023-03-28T02:39:58.252Z,0.68
2023-03-28T02:43:08.118Z,0.90
2023-03-28T02:46:08.943Z,0.90
2023-03-28T02:49:12.219Z,1.25
2023-03-28T02:51:48.554Z,1.52
2023-03-28T02:54:31.294Z,1.17
2023-03-28T02:57:30.562Z,1.23
2023-03-28T03:00:12.760Z,1.05
2023-03-28T03:02:45.403Z,1.10
2023-03-28T03:05:13.892Z,1.13
2023-03-28T03:07:43.170Z,0.88
2023-03-28T03:10:15.386Z,1.40
2023-03-28T03:12:47.355Z,1.20
2023-03-28T03:15:17.193Z,1.10
2023-03-28T03:17:58.611Z,1.20
2023-03-28T03:20:34.338Z,0.85
2023-03-28T03:23:04.514Z,1.50
2023-03-28T03:25:35.900Z,1.48
2023-03-28T03:28:14.282Z,1.55
2023-03-28T03:30:43.644Z,1.02
2023-03-28T03:33:42.745Z,1.02
2023-03-28T03:36:13.674Z,1.02
2023-03-28T03:38:43.214Z,1.65
2023-03-28T03:41:17.327Z,0.90
2023-03-28T03:43:47.246Z,1.45
2023-03-28T03:46:15.700Z,1.13
2023-03-28T03:48:49.291Z,1.83
2023-03-28T03:51:18.737Z,1.63
2023-03-28T03:53:50.581Z,1.52
2023-03-28T03:56:21.149Z,1.90
2023-03-28T03:58:55.044Z,2.17
2023-03-28T04:01:29.877Z,2.50
2023-03-28T04:04:04.771Z,2.00
2023-03-28T04:06:45.314Z,2.47
2023-03-28T04:09:14.334Z,3.47
2023-03-28T04:11:58.171Z,3.53
2023-03-28T04:14:27.025Z,3.17
2023-03-28T04:17:16.088Z,2.20
2023-03-28T04:19:46.563Z,1.75
2023-03-28T04:22:17.893Z,2.47
2023-03-28T04:24:53.457Z,2.53
2023-03-28T04:27:36.346Z,4.07
2023-03-28T04:30:07.161Z,4.13
2023-03-28T04:33:04.405Z,1.20
2023-03-28T04:35:40.105Z,0.80
2023-03-28T04:38:09.668Z,1.52
2023-03-28T04:40:53.666Z,1.13
2023-03-28T04:43:47.753Z,5.40
2023-03-28T04:46:16.427Z,14.27
2023-03-28T04:48:44.805Z,22.35
2023-03-28T04:51:14.549Z,27.98
2023-03-28T04:53:43.673Z,19.85
2023-03-28T04:56:30.876Z,13.35
2023-03-28T04:58:59.618Z,3.80
2023-03-28T05:01:29.877Z,2.17
2023-03-28T05:04:23.597Z,4.45
2023-03-28T05:06:53.413Z,10.68
2023-03-28T05:09:22.745Z,13.25
2023-03-28T05:11:51.927Z,16.63
2023-03-28T05:14:20.423Z,7.60
2023-03-28T05:16:52.496Z,5.93
2023-03-28T05:19:39.811Z,3.38
2023-03-28T05:22:21.600Z,1.33
2023-03-28T05:24:50.959Z,0.90
2023-03-28T05:27:22.255Z,1.77
2023-03-28T05:29:51.285Z,1.77
2023-03-28T05:32:20.324Z,1.30
2023-03-28T05:34:48.889Z,1.50
2023-03-28T05:37:17.382Z,0.95
2023-03-28T05:39:51.695Z,1.52
2023-03-28T05:42:21.007Z,1.40
2023-03-28T05:44:49.882Z,1.80
2023-03-28T05:47:37.055Z,1.27
2023-03-28T05:50:06.748Z,1.27
2023-03-28T05:52:35.596Z,1.60
2023-03-28T05:55:10.186Z,1.83
2023-03-28T05:57:38.670Z,1.40
2023-03-28T06:00:15.016Z,1.38
2023-03-28T06:02:54.845Z,1.17
2023-03-28T06:05:32.783Z,2.45
2023-03-28T06:08:03.002Z,3.47
2023-03-28T06:10:32.712Z,3.97
2023-03-28T06:13:15.713Z,3.55
2023-03-28T06:15:46.623Z,2.47
2023-03-28T06:18:15.609Z,3.00
2023-03-28T06:20:50.756Z,2.25
2023-03-28T06:23:19.457Z,1.77
2023-03-28T06:25:49.238Z,2.40
2023-03-28T06:28:19.817Z,2.30
2023-03-28T06:31:08.842Z,2.53
2023-03-28T06:33:40.893Z,1.92
2023-03-28T06:36:10.285Z,2.05
2023-03-28T06:38:38.992Z,1.98
2023-03-28T06:41:08.845Z,2.30
2023-03-28T06:43:38.006Z,2.15
2023-03-28T06:46:08.949Z,2.30
2023-03-28T06:48:42.570Z,2.90
2023-03-28T06:51:26.405Z,2.05
2023-03-28T06:53:55.474Z,2.08
2023-03-28T06:56:29.409Z,3.17
2023-03-28T06:58:59.805Z,2.28
2023-03-28T07:01:31.882Z,2.35
2023-03-28T07:04:15.423Z,3.33
2023-03-28T07:06:46.840Z,2.88
2023-03-28T07:09:15.436Z,2.95
2023-03-28T07:12:08.523Z,3.58
2023-03-28T07:14:37.128Z,2.85
2023-03-28T07:17:05.676Z,2.95
2023-03-28T07:19:34.481Z,3.58
2023-03-28T07:22:03.040Z,3.80
2023-03-28T07:24:31.866Z,3.03
2023-03-28T07:27:14.720Z,2.72
2023-03-28T07:29:45.982Z,2.80
2023-03-28T07:32:14.815Z,2.70
2023-03-28T07:34:46.223Z,2.35
2023-03-28T07:37:24.459Z,2.28
2023-03-28T07:39:58.647Z,1.75
2023-03-28T07:42:28.932Z,2.67
2023-03-28T07:44:58.506Z,2.42
2023-03-28T07:47:26.813Z,2.30
2023-03-28T07:49:55.660Z,2.38
2023-03-28T07:52:24.688Z,1.92
2023-03-28T07:54:53.894Z,2.00
2023-03-28T07:57:22.613Z,2.33
2023-03-28T08:00:13.284Z,1.35
2023-03-28T08:02:44.885Z,1.92
2023-03-28T08:05:14.853Z,1.33
2023-03-28T08:07:45.998Z,1.55
2023-03-28T08:10:14.898Z,1.45
2023-03-28T08:12:43.505Z,1.98
2023-03-28T08:15:13.477Z,2.05
2023-03-28T08:17:42.017Z,2.20
2023-03-28T08:20:12.838Z,2.45
2023-03-28T08:22:57.670Z,1.80
2023-03-28T08:25:45.310Z,1.60
2023-03-28T08:28:16.641Z,2.28
2023-03-28T08:30:46.295Z,1.50
2023-03-28T08:33:14.847Z,1.90
2023-03-28T08:35:43.606Z,1.70
2023-03-28T08:38:18.785Z,1.80
2023-03-28T08:40:58.849Z,1.80
2023-03-28T08:43:59.842Z,1.48
2023-03-28T08:46:31.289Z,1.65
2023-03-28T08:49:05.863Z,1.33
2023-03-28T08:51:38.930Z,1.25
2023-03-28T08:54:13.986Z,2.05
2023-03-28T08:59:17.259Z,1.00
2023-03-28T09:01:47.252Z,1.40
2023-03-28T09:04:28.119Z,1.75
2023-03-28T09:07:19.128Z,1.10
2023-03-28T09:09:58.988Z,1.52
2023-03-28T09:12:51.847Z,1.25
2023-03-28T09:18:19.643Z,1.38
2023-03-28T09:20:54.872Z,1.02
2023-03-28T09:24:00.282Z,1.23
2023-03-28T09:27:02.407Z,1.17
2023-03-28T09:29:35.287Z,0.98
2023-03-28T09:32:11.587Z,1.13
2023-03-28T09:34:50.731Z,1.25
2023-03-28T09:37:33.437Z,1.02
2023-03-28T09:40:17.716Z,1.50
2023-03-28T09:43:15.255Z,1.70
2023-03-28T09:46:00.355Z,1.05
2023-03-28T09:48:53.284Z,0.70
2023-03-28T09:51:25.883Z,1.15
2023-03-28T09:53:55.438Z,1.48
2023-03-28T09:56:28.837Z,1.60
2023-03-28T09:59:05.979Z,1.00
2023-03-28T10:01:43.618Z,1.03
2023-03-28T10:04:21.236Z,0.70
2023-03-28T10:07:33.338Z,0.70
2023-03-28T10:10:21.756Z,0.60
2023-03-28T10:13:00.373Z,0.60
2023-03-28T10:15:39.768Z,0.88
2023-03-28T10:18:29.360Z,0.73
2023-03-28T10:21:17.216Z,1.15
2023-03-28T10:24:00.276Z,0.57
2023-03-28T10:26:29.662Z,0.82
2023-03-28T10:29:04.781Z,1.10
2023-03-28T10:31:34.684Z,0.70
2023-03-28T10:34:29.047Z,0.85
2023-03-28T10:37:28.598Z,0.68
2023-03-28T10:40:31.191Z,0.65
2023-03-28T10:43:14.862Z,0.70
2023-03-28T10:45:50.860Z,1.13
2023-03-28T10:48:30.975Z,0.90
2023-03-28T10:51:10.562Z,0.70
2023-03-28T10:56:33.756Z,1.02
2023-03-28T10:59:27.241Z,0.70
2023-03-28T11:02:20.337Z,0.47
2023-03-28T11:05:06.888Z,0.82
2023-03-28T11:07:45.083Z,0.65
2023-03-28T11:10:31.505Z,0.70
2023-03-28T11:13:36.901Z,1.20
2023-03-28T11:16:15.071Z,1.58
2023-03-28T11:19:39.498Z,0.90
2023-03-28T11:22:22.596Z,1.00
2023-03-28T11:25:06.258Z,0.80
2023-03-28T11:28:16.859Z,1.00
2023-03-28T11:30:56.235Z,1.00
2023-03-28T11:33:58.771Z,0.90
2023-03-28T11:36:34.375Z,1.10
2023-03-28T11:39:14.433Z,0.85
2023-03-28T11:41:45.967Z,1.02
2023-03-28T11:44:30.015Z,0.85
2023-03-28T11:47:08.381Z,0.93
2023-03-28T11:49:44.278Z,1.08
2023-03-28T11:52:38.031Z,0.75
2023-03-28T11:55:17.751Z,1.13
2023-03-28T11:57:55.574Z,1.10
2023-03-28T12:00:33.379Z,0.80
2023-03-28T12:03:16.876Z,1.60
2023-03-28T12:06:02.765Z,0.93
2023-03-28T12:08:40.145Z,0.98
2023-03-28T12:11:16.399Z,0.80
2023-03-28T12:14:10.955Z,1.20
2023-03-28T12:16:49.209Z,0.52
2023-03-28T12:19:32.701Z,1.13
2023-03-28T12:22:14.832Z,1.02
2023-03-28T12:24:55.744Z,1.30
2023-03-28T12:27:43.858Z,0.90
2023-03-28T12:30:25.633Z,0.82
2023-03-28T12:33:10.144Z,0.80
2023-03-28T12:35:55.353Z,0.95
2023-03-28T12:38:32.346Z,0.88
2023-03-28T12:41:21.766Z,1.00
2023-03-28T12:43:54.870Z,0.82
2023-03-28T12:46:35.986Z,0.70
2023-03-28T12:49:08.470Z,1.13
2023-03-28T12:51:43.452Z,0.95
2023-03-28T12:54:29.274Z,1.27
2023-03-28T12:57:11.997Z,1.17
2023-03-28T13:00:13.482Z,1.02
2023-03-28T13:03:24.591Z,1.52
2023-03-28T13:06:00.194Z,1.00
2023-03-28T13:08:47.247Z,0.77
2023-03-28T13:11:26.194Z,0.93
2023-03-28T13:14:03.762Z,1.40
2023-03-28T13:16:47.298Z,1.50
2023-03-28T13:19:18.419Z,0.85
2023-03-28T13:21:51.026Z,1.35
2023-03-28T13:24:33.337Z,1.00
2023-03-28T13:27:04.432Z,1.33
2023-03-28T13:29:48.596Z,1.52
2023-03-28T13:32:19.036Z,1.20
2023-03-28T13:34:50.123Z,1.67
2023-03-28T13:37:23.086Z,1.35
2023-03-28T13:40:01.108Z,1.40
2023-03-28T13:42:31.850Z,1.55
2023-03-28T13:45:04.260Z,1.42
2023-03-28T13:47:38.256Z,1.42
2023-03-28T13:50:19.638Z,1.45
2023-03-28T13:52:48.280Z,0.98
2023-03-28T13:55:23.295Z,1.15
2023-03-28T13:57:52.749Z,1.67
2023-03-28T14:00:25.474Z,1.90
2023-03-28T14:03:01.676Z,1.23
2023-03-28T14:05:31.947Z,1.42
2023-03-28T14:08:21.418Z,1.35
2023-03-28T14:10:52.272Z,1.30
2023-03-28T14:13:25.427Z,1.42
2023-03-28T14:15:55.414Z,1.58
2023-03-28T14:18:33.131Z,1.67
2023-03-28T14:21:02.272Z,1.45
2023-03-28T14:23:34.202Z,1.48
2023-03-28T14:26:08.585Z,1.15
2023-03-28T14:28:42.033Z,1.33
2023-03-28T14:31:14.916Z,1.48
2023-03-28T14:33:47.603Z,1.27
2023-03-28T14:36:18.502Z,1.65
2023-03-28T14:38:47.053Z,3.42
2023-03-28T14:41:21.356Z,4.85
2023-03-28T14:43:54.599Z,1.55
2023-03-28T14:46:28.013Z,1.42
2023-03-28T14:49:01.504Z,1.25
2023-03-28T14:51:44.744Z,1.23
2023-03-28T14:54:23.288Z,1.10
2023-03-28T14:56:54.053Z,1.48
2023-03-28T14:59:27.145Z,1.92
2023-03-28T15:02:00.164Z,0.93
2023-03-28T15:04:29.505Z,1.27
2023-03-28T15:06:59.852Z,1.10
2023-03-28T15:09:32.154Z,1.08
2023-03-28T15:12:06.908Z,1.17
2023-03-28T15:14:46.495Z,1.13
2023-03-28T15:17:19.791Z,1.10
2023-03-28T15:19:52.654Z,1.25
2023-03-28T15:22:25.545Z,0.90
2023-03-28T15:24:55.332Z,1.23
2023-03-28T15:27:30.828Z,1.20
2023-03-28T15:30:04.582Z,1.27
2023-03-28T15:32:34.475Z,1.25
2023-03-28T15:35:09.143Z,0.93
2023-03-28T15:37:43.264Z,0.98
2023-03-28T15:40:28.582Z,0.82
2023-03-28T15:43:00.286Z,1.15
2023-03-28T15:45:50.715Z,0.90
2023-03-28T15:48:20.976Z,1.15
2023-03-28T15:50:55.125Z,1.08
2023-03-28T15:53:29.502Z,1.23
2023-03-28T15:56:06.411Z,1.50
2023-03-28T15:58:41.464Z,1.70
2023-03-28T16:01:24.867Z,1.70
2023-03-28T16:04:22.048Z,1.75
2023-03-28T16:06:54.770Z,1.80
2023-03-28T16:09:25.409Z,1.40
2023-03-28T16:12:00.508Z,1.40
2023-03-28T16:14:59.253Z,1.00
2023-03-28T16:17:58.728Z,1.15
2023-03-28T16:20:45.883Z,1.63
2023-03-28T16:23:14.438Z,1.55
2023-03-28T16:25:43.390Z,1.33
2023-03-28T16:28:18.150Z,1.67
2023-03-28T16:33:16.966Z,1.63
2023-03-28T16:35:45.885Z,0.88
2023-03-28T16:38:14.471Z,1.40
2023-03-28T16:40:43.172Z,1.17
2023-03-28T16:43:13.117Z,1.20
2023-03-28T16:45:41.372Z,1.38
2023-03-28T16:48:11.022Z,1.73
2023-03-28T16:50:39.804Z,1.60
2023-03-28T16:53:08.594Z,1.38
2023-03-28T16:55:37.137Z,1.63
2023-03-28T16:58:05.640Z,1.40
2023-03-28T17:00:46.372Z,1.77
2023-03-28T17:03:17.009Z,1.42
2023-03-28T17:05:46.340Z,1.40
2023-03-28T17:08:15.198Z,1.50
2023-03-28T17:10:44.523Z,1.95
2023-03-28T17:13:13.067Z,0.88
2023-03-28T17:15:42.161Z,1.08
2023-03-28T17:18:11.190Z,2.10
2023-03-28T17:20:40.930Z,1.23
2023-03-28T17:23:09.215Z,1.35
2023-03-28T17:25:48.135Z,1.05
2023-03-28T17:28:20.624Z,1.00
2023-03-28T17:30:49.215Z,1.42
2023-03-28T17:33:18.211Z,1.40
2023-03-28T17:35:48.237Z,1.25
2023-03-28T17:38:16.903Z,1.20
2023-03-28T17:40:48.235Z,1.05
2023-03-28T17:43:17.141Z,1.52
2023-03-28T17:45:45.705Z,1.33
2023-03-28T17:48:14.298Z,2.00
2023-03-28T17:50:43.323Z,1.50
2023-03-28T17:53:12.903Z,1.92
2023-03-28T17:55:42.009Z,1.20
2023-03-28T17:58:10.278Z,1.60
2023-03-28T18:00:38.763Z,1.13
2023-03-28T18:03:07.425Z,1.70
2023-03-28T18:06:00.534Z,1.42
2023-03-28T18:08:31.416Z,1.50
2023-03-28T18:11:01.938Z,1.10
2023-03-28T18:13:30.434Z,1.30
2023-03-28T18:15:59.082Z,1.05
2023-03-28T18:18:27.707Z,1.75
2023-03-28T18:20:56.194Z,1.60
2023-03-28T18:23:24.411Z,1.52
2023-03-28T18:25:54.590Z,1.23
2023-03-28T18:28:23.847Z,1.60
2023-03-28T18:30:53.260Z,1.48
2023-03-28T18:33:22.474Z,1.52
2023-03-28T18:35:51.133Z,1.40
2023-03-28T18:38:19.676Z,1.40
2023-03-28T18:40:54.465Z,1.20
2023-03-28T18:43:23.031Z,1.80
2023-03-28T18:45:55.450Z,5.03
2023-03-28T18:48:24.084Z,6.15
2023-03-28T18:50:52.250Z,2.47
2023-03-28T18:53:20.480Z,1.27
2023-03-28T18:55:49.198Z,1.58
2023-03-28T18:58:18.834Z,2.10
2023-03-28T19:00:47.526Z,2.97
2023-03-28T19:03:17.460Z,2.03
2023-03-28T19:05:46.025Z,1.50
2023-03-28T19:08:14.276Z,1.55
2023-03-28T19:10:46.841Z,2.33
2023-03-28T19:13:15.406Z,1.25
2023-03-28T19:15:45.225Z,1.88
2023-03-28T19:18:13.539Z,1.65
2023-03-28T19:20:42.100Z,1.70
2023-03-28T19:23:10.659Z,1.77
2023-03-28T19:25:39.149Z,1.98
2023-03-28T19:28:07.903Z,2.17
2023-03-28T19:30:39.965Z,2.03
2023-03-28T19:33:09.842Z,1.60
2023-03-28T19:35:39.520Z,1.88
2023-03-28T19:38:08.272Z,1.80
2023-03-28T19:40:36.802Z,2.00
2023-03-28T19:43:05.376Z,2.20
2023-03-28T19:45:33.667Z,2.03
2023-03-28T19:48:02.235Z,2.13
2023-03-28T19:50:33.458Z,2.10
2023-03-28T19:53:01.730Z,2.60
2023-03-28T19:55:30.585Z,2.30
2023-03-28T19:57:59.192Z,2.72
2023-03-28T20:00:28.025Z,2.40
2023-03-28T20:02:58.349Z,2.00
2023-03-28T20:05:27.244Z,2.28
2023-03-28T20:07:57.070Z,3.00
2023-03-28T20:10:25.658Z,4.32
2023-03-28T20:12:53.837Z,2.83
2023-03-28T20:15:22.013Z,2.20
2023-03-28T20:17:50.522Z,2.38
2023-03-28T20:20:19.688Z,2.88
2023-03-28T20:22:48.224Z,2.08
2023-03-28T20:25:17.931Z,1.98
2023-03-28T20:27:47.531Z,1.98
2023-03-28T20:30:16.233Z,1.95
2023-03-28T20:32:44.832Z,1.80
2023-03-28T20:35:13.358Z,1.67
2023-03-28T20:37:41.847Z,1.40
2023-03-28T20:40:11.481Z,1.98
2023-03-28T20:42:41.725Z,1.58
2023-03-28T20:45:13.988Z,1.90
2023-03-28T20:47:42.878Z,1.42
2023-03-28T20:50:12.724Z,1.17
2023-03-28T20:52:42.397Z,1.30
2023-03-28T20:55:12.090Z,1.42
2023-03-28T20:57:42.244Z,1.30
2023-03-28T21:00:14.680Z,1.10
2023-03-28T21:02:46.094Z,1.67
2023-03-28T21:05:14.433Z,1.15
2023-03-28T21:07:43.964Z,1.27
2023-03-28T21:10:13.706Z,1.55
2023-03-28T21:12:43.959Z,1.05
2023-03-28T21:15:12.813Z,1.40
2023-03-28T21:17:41.467Z,1.15
2023-03-28T21:20:11.643Z,1.27
2023-03-28T21:22:40.496Z,1.50
2023-03-28T21:25:10.492Z,1.35
2023-03-28T21:27:39.077Z,1.70
2023-03-28T21:30:11.697Z,1.92
2023-03-28T21:32:40.447Z,1.48
2023-03-28T21:35:10.254Z,1.52
2023-03-28T21:37:38.910Z,1.70
2023-03-28T21:40:09.856Z,1.42
2023-03-28T21:42:38.417Z,1.77
2023-03-28T21:45:09.428Z,1.25
2023-03-28T21:47:38.329Z,0.90
2023-03-28T21:50:08.599Z,1.40
2023-03-28T21:52:37.214Z,1.15
2023-03-28T21:55:06.318Z,1.40
2023-03-28T21:57:34.861Z,1.40
2023-03-28T22:00:14.640Z,1.58
2023-03-28T22:02:45.450Z,1.58
2023-03-28T22:05:28.198Z,1.40
2023-03-28T22:07:57.732Z,2.25
2023-03-28T22:10:27.022Z,1.95
2023-03-28T22:12:58.629Z,1.55
2023-03-28T22:15:27.510Z,1.67
2023-03-28T22:17:58.182Z,1.73
2023-03-28T22:20:28.353Z,1.40
2023-03-28T22:23:01.266Z,2.10
2023-03-28T22:25:34.682Z,1.73
2023-03-28T22:28:04.752Z,2.08
2023-03-28T22:30:33.506Z,1.35
2023-03-28T22:33:03.892Z,0.95
2023-03-28T22:35:33.451Z,1.35
2023-03-28T22:38:02.594Z,2.03
2023-03-28T22:40:31.687Z,1.90
2023-03-28T22:43:00.248Z,1.50
2023-03-28T22:45:29.042Z,1.48
2023-03-28T22:48:00.397Z,1.48
2023-03-28T22:50:33.385Z,1.15
2023-03-28T22:53:02.271Z,1.27
2023-03-28T22:55:30.951Z,1.33
2023-03-28T22:57:59.713Z,1.48
2023-03-28T23:00:28.886Z,1.50
2023-03-28T23:02:57.601Z,1.33
2023-03-28T23:05:26.143Z,1.50
2023-03-28T23:07:55.787Z,1.50
2023-03-28T23:10:24.341Z,1.25
2023-03-28T23:12:53.105Z,1.30
2023-03-28T23:15:21.936Z,1.25
2023-03-28T23:17:50.860Z,1.65
2023-03-28T23:20:19.570Z,1.30
2023-03-28T23:22:49.681Z,1.65
2023-03-28T23:25:21.457Z,1.02
2023-03-28T23:27:50.560Z,1.05
2023-03-28T23:30:19.229Z,1.27
2023-03-28T23:32:47.609Z,1.33
2023-03-28T23:35:16.299Z,1.40
2023-03-28T23:37:45.079Z,1.17
2023-03-28T23:40:15.551Z,1.63
2023-03-28T23:42:46.384Z,1.40
2023-03-28T23:45:15.990Z,1.40
2023-03-28T23:47:44.991Z,1.30
2023-03-28T23:50:14.259Z,2.15
2023-03-28T23:52:42.836Z,1.17
2023-03-28T23:55:11.685Z,1.23
2023-03-28T23:57:40.225Z,1.40
